createdAt,value
2018-05-04T00:00:49.416Z,2.70
2018-05-04T00:03:16.995Z,3.23
2018-05-04T00:05:43.858Z,3.10
2018-05-04T00:08:10.760Z,2.90
2018-05-04T00:10:38.356Z,3.50
2018-05-04T00:13:05.203Z,3.13
2018-05-04T00:15:32.097Z,2.83
2018-05-04T00:17:58.941Z,2.90
2018-05-04T00:20:25.784Z,3.47
2018-05-04T00:22:52.676Z,2.87
2018-05-04T00:25:25.581Z,3.47
2018-05-04T00:27:52.484Z,3.10
2018-05-04T00:30:19.387Z,3.20
2018-05-04T00:32:46.217Z,2.80
2018-05-04T00:35:13.135Z,3.53
2018-05-04T00:37:40.028Z,2.63
2018-05-04T00:40:06.875Z,2.93
2018-05-04T00:42:33.708Z,3.60
2018-05-04T00:45:00.617Z,3.47
2018-05-04T00:47:27.475Z,3.33
2018-05-04T00:49:54.333Z,3.37
2018-05-04T00:52:21.311Z,3.27
2018-05-04T00:54:48.163Z,3.20
2018-05-04T00:57:15.755Z,2.83
2018-05-04T00:59:42.725Z,3.10
2018-05-04T01:02:09.598Z,3.13
2018-05-04T01:04:36.437Z,3.43
2018-05-04T01:07:03.375Z,3.83
2018-05-04T01:09:30.232Z,3.20
2018-05-04T01:11:57.310Z,3.30
2018-05-04T01:14:24.962Z,3.30
2018-05-04T01:16:51.805Z,3.70
2018-05-04T01:19:19.406Z,3.90
2018-05-04T01:21:46.311Z,3.70
2018-05-04T01:24:13.916Z,3.23
2018-05-04T01:26:40.774Z,3.03
2018-05-04T01:29:07.657Z,3.20
2018-05-04T01:31:34.732Z,3.00
2018-05-04T01:34:02.363Z,2.67
2018-05-04T01:36:29.340Z,3.43
2018-05-04T01:38:56.963Z,2.87
2018-05-04T01:41:23.816Z,4.07
2018-05-04T01:43:50.691Z,3.03
2018-05-04T01:46:18.319Z,3.17
2018-05-04T01:48:45.181Z,3.00
2018-05-04T01:51:12.082Z,3.13
2018-05-04T01:53:38.923Z,4.03
2018-05-04T01:56:05.807Z,3.03
2018-05-04T01:58:33.035Z,3.07
2018-05-04T02:00:59.882Z,3.27
2018-05-04T02:03:26.775Z,3.53
2018-05-04T02:05:54.468Z,4.17
2018-05-04T02:08:21.317Z,3.43
2018-05-04T02:10:48.185Z,4.50
2018-05-04T02:13:15.093Z,4.57
2018-05-04T02:15:41.920Z,3.80
2018-05-04T02:18:09.506Z,4.27
2018-05-04T02:20:36.503Z,3.97
2018-05-04T02:23:03.342Z,3.70
2018-05-04T02:25:30.201Z,3.30
2018-05-04T02:27:57.080Z,3.37
2018-05-04T02:30:23.932Z,3.67
2018-05-04T02:32:50.780Z,3.67
2018-05-04T02:35:17.678Z,3.63
2018-05-04T02:37:44.892Z,3.03
2018-05-04T02:40:11.731Z,3.63
2018-05-04T02:42:38.616Z,3.83
2018-05-04T02:45:05.467Z,3.93
2018-05-04T02:47:33.071Z,3.27
2018-05-04T02:49:59.953Z,3.67
2018-05-04T02:52:26.803Z,3.60
2018-05-04T02:54:53.644Z,3.80
2018-05-04T02:57:20.533Z,3.87
2018-05-04T02:59:47.430Z,3.87
2018-05-04T03:02:14.280Z,3.33
2018-05-04T03:04:41.302Z,3.77
2018-05-04T03:07:08.155Z,3.40
2018-05-04T03:09:35.002Z,3.23
2018-05-04T03:12:02.168Z,3.87
2018-05-04T03:14:29.018Z,4.10
2018-05-04T03:16:55.855Z,3.90
2018-05-04T03:19:22.739Z,4.23
2018-05-04T03:21:49.590Z,3.63
2018-05-04T03:24:16.437Z,4.37
2018-05-04T03:26:43.348Z,4.30
2018-05-04T03:29:10.947Z,3.50
2018-05-04T03:31:37.795Z,3.70
2018-05-04T03:34:04.823Z,3.20
2018-05-04T03:36:32.428Z,3.97
2018-05-04T03:39:00.231Z,3.70
2018-05-04T03:41:27.114Z,3.35
2018-05-04T03:43:53.974Z,3.45
2018-05-04T03:46:20.839Z,3.30
2018-05-04T03:48:47.728Z,4.00
2018-05-04T03:51:14.621Z,4.15
2018-05-04T03:53:41.467Z,3.85
2018-05-04T03:56:08.376Z,4.07
2018-05-04T03:58:53.592Z,4.97
2018-05-04T04:01:38.776Z,3.80
2018-05-04T04:04:11.362Z,3.62
2018-05-04T04:06:38.307Z,4.65
2018-05-04T04:09:05.385Z,4.57
2018-05-04T04:11:32.988Z,3.97
2018-05-04T04:13:59.900Z,4.32
2018-05-04T04:16:26.808Z,3.90
2018-05-04T04:18:53.647Z,3.80
2018-05-04T04:21:20.611Z,3.55
2018-05-04T04:23:47.674Z,4.10
2018-05-04T04:26:15.271Z,3.70
2018-05-04T04:28:42.127Z,4.20
2018-05-04T04:31:09.173Z,4.00
2018-05-04T04:33:36.005Z,4.60
2018-05-04T04:36:02.951Z,4.68
2018-05-04T04:38:29.841Z,4.20
2018-05-04T04:40:56.699Z,4.85
2018-05-04T04:43:24.336Z,4.60
2018-05-04T04:45:51.252Z,4.53
2018-05-04T04:48:18.087Z,4.60
2018-05-04T04:50:44.942Z,4.50
2018-05-04T04:53:11.853Z,4.70
2018-05-04T04:55:39.460Z,4.78
2018-05-04T04:58:06.316Z,4.85
2018-05-04T05:00:33.480Z,4.82
2018-05-04T05:03:00.324Z,4.87
2018-05-04T05:05:27.259Z,4.78
2018-05-04T05:07:54.294Z,4.60
2018-05-04T05:10:21.168Z,4.75
2018-05-04T05:12:48.012Z,4.70
2018-05-04T05:15:14.919Z,4.90
2018-05-04T05:17:41.758Z,4.97
2018-05-04T05:20:08.601Z,4.20
2018-05-04T05:22:35.588Z,4.47
2018-05-04T05:25:02.495Z,4.93
2018-05-04T05:27:29.344Z,5.37
2018-05-04T05:29:56.391Z,4.93
2018-05-04T05:32:23.234Z,4.77
2018-05-04T05:34:50.076Z,4.57
2018-05-04T05:37:17.090Z,4.77
2018-05-04T05:39:44.683Z,4.50
2018-05-04T05:42:11.527Z,5.53
2018-05-04T05:44:38.427Z,5.13
2018-05-04T05:47:05.281Z,6.07
2018-05-04T05:49:32.217Z,4.93
2018-05-04T05:51:59.249Z,5.33
2018-05-04T05:54:26.758Z,4.83
2018-05-04T05:56:54.351Z,5.47
2018-05-04T05:59:21.235Z,5.07
2018-05-04T06:01:48.098Z,4.73
2018-05-04T06:04:15.683Z,5.53
2018-05-04T06:06:42.775Z,5.93
2018-05-04T06:09:10.392Z,5.07
2018-05-04T06:11:37.320Z,5.10
2018-05-04T06:14:04.943Z,5.33
2018-05-04T06:16:31.793Z,4.97
2018-05-04T06:18:58.643Z,4.63
2018-05-04T06:21:25.556Z,4.97
2018-05-04T06:23:52.393Z,5.73
2018-05-04T06:26:19.233Z,5.03
2018-05-04T06:28:46.137Z,4.00
2018-05-04T06:31:13.024Z,4.00
2018-05-04T06:33:39.874Z,3.77
2018-05-04T06:36:06.807Z,4.77
2018-05-04T06:38:33.640Z,4.73
2018-05-04T06:41:01.229Z,5.07
2018-05-04T06:43:28.103Z,3.97
2018-05-04T06:45:54.939Z,4.67
2018-05-04T06:48:21.775Z,4.00
2018-05-04T06:50:48.660Z,3.90
2018-05-04T06:53:15.584Z,5.07
2018-05-04T06:55:42.429Z,4.80
2018-05-04T06:58:09.335Z,4.23
2018-05-04T07:00:36.248Z,3.67
2018-05-04T07:03:03.110Z,3.93
2018-05-04T07:05:30.751Z,4.13
2018-05-04T07:07:57.592Z,4.17
2018-05-04T07:10:25.233Z,3.10
2018-05-04T07:12:52.201Z,3.60
2018-05-04T07:15:19.046Z,3.43
2018-05-04T07:17:45.879Z,3.60
2018-05-04T07:20:12.768Z,3.67
2018-05-04T07:22:39.624Z,3.10
2018-05-04T07:25:06.497Z,3.00
2018-05-04T07:27:33.376Z,3.37
2018-05-04T07:30:00.215Z,3.10
2018-05-04T07:32:27.059Z,3.50
2018-05-04T07:34:53.953Z,3.40
2018-05-04T07:37:20.797Z,3.30
2018-05-04T07:39:47.645Z,3.30
2018-05-04T07:42:14.555Z,3.93
2018-05-04T07:44:43.256Z,2.63
2018-05-04T07:47:10.125Z,3.50
2018-05-04T07:49:37.140Z,3.40
2018-05-04T07:52:03.960Z,2.77
2018-05-04T07:54:30.829Z,2.73
2018-05-04T07:56:58.485Z,2.93
2018-05-04T07:59:25.383Z,3.20
2018-05-04T08:01:52.285Z,3.03
2018-05-04T08:04:20.069Z,3.13
2018-05-04T08:06:46.911Z,3.33
2018-05-04T08:09:13.776Z,2.77
2018-05-04T08:11:40.839Z,2.77
2018-05-04T08:14:07.715Z,2.47
2018-05-04T08:16:34.598Z,2.30
2018-05-04T08:19:01.504Z,2.50
2018-05-04T08:21:28.341Z,2.10
2018-05-04T08:23:55.179Z,2.20
2018-05-04T08:26:22.255Z,2.50
2018-05-04T08:28:49.828Z,2.20
2018-05-04T08:31:16.693Z,2.87
2018-05-04T08:33:43.653Z,3.13
2018-05-04T08:36:11.248Z,2.70
2018-05-04T08:38:38.105Z,2.60
2018-05-04T08:41:05.759Z,3.20
2018-05-04T08:43:32.596Z,2.53
2018-05-04T08:45:59.449Z,2.10
2018-05-04T08:48:26.349Z,2.70
2018-05-04T08:50:53.254Z,2.90
2018-05-04T08:53:20.087Z,2.37
2018-05-04T08:55:47.731Z,3.07
2018-05-04T08:58:14.604Z,2.20
2018-05-04T09:00:41.498Z,2.30
2018-05-04T09:03:08.432Z,2.20
2018-05-04T09:05:35.330Z,2.77
2018-05-04T09:08:02.147Z,2.60
2018-05-04T09:10:29.037Z,2.23
2018-05-04T09:12:56.645Z,2.47
2018-05-04T09:15:23.587Z,4.50
2018-05-04T09:17:50.618Z,2.47
2018-05-04T09:20:17.470Z,4.30
2018-05-04T09:22:44.317Z,2.23
2018-05-04T09:25:11.417Z,2.20
2018-05-04T09:27:38.211Z,2.40
2018-05-04T09:30:05.072Z,2.47
2018-05-04T09:32:31.951Z,2.57
2018-05-04T09:34:59.539Z,2.57
2018-05-04T09:37:26.383Z,2.13
2018-05-04T09:39:53.280Z,2.10
2018-05-04T09:42:20.123Z,2.37
2018-05-04T09:44:46.967Z,2.67
2018-05-04T09:47:13.844Z,2.20
2018-05-04T09:49:41.427Z,2.50
2018-05-04T09:52:08.282Z,2.20
2018-05-04T09:54:35.164Z,2.20
2018-05-04T09:57:02.032Z,2.10
2018-05-04T09:59:29.629Z,1.40
2018-05-04T10:01:56.652Z,2.10
2018-05-04T10:04:24.236Z,1.90
2018-05-04T10:06:51.125Z,1.50
2018-05-04T10:09:18.029Z,1.63
2018-05-04T10:11:44.906Z,1.80
2018-05-04T10:14:11.753Z,1.83
2018-05-04T10:16:38.673Z,1.63
2018-05-04T10:19:05.519Z,1.87
2018-05-04T10:21:32.363Z,1.70
2018-05-04T10:23:59.247Z,1.47
2018-05-04T10:26:26.091Z,1.53
2018-05-04T10:28:52.941Z,1.77
2018-05-04T10:31:19.989Z,1.60
2018-05-04T10:33:46.857Z,1.83
2018-05-04T10:36:14.443Z,1.40
2018-05-04T10:38:41.366Z,1.73
2018-05-04T10:41:08.961Z,2.13
2018-05-04T10:43:35.803Z,1.53
2018-05-04T10:46:02.755Z,1.87
2018-05-04T10:48:29.638Z,2.03
2018-05-04T10:50:56.537Z,1.70
2018-05-04T10:53:23.531Z,2.13
2018-05-04T10:55:50.381Z,2.00
2018-05-04T10:58:17.282Z,1.73
2018-05-04T11:00:45.176Z,2.27
2018-05-04T11:03:12.015Z,1.83
2018-05-04T11:05:38.861Z,2.07
2018-05-04T11:08:05.757Z,2.13
2018-05-04T11:10:32.603Z,2.20
2018-05-04T11:12:59.565Z,2.73
2018-05-04T11:15:26.447Z,2.90
2018-05-04T11:17:53.304Z,2.50
2018-05-04T11:20:20.164Z,3.13
2018-05-04T11:22:47.895Z,3.43
2018-05-04T11:25:14.754Z,4.00
2018-05-04T11:27:41.609Z,3.63
2018-05-04T11:30:08.506Z,3.10
2018-05-04T11:32:35.407Z,3.83
2018-05-04T11:35:03.049Z,2.43
2018-05-04T11:37:29.947Z,2.40
2018-05-04T11:39:56.800Z,2.40
2018-05-04T11:42:23.696Z,3.00
2018-05-04T11:44:50.585Z,2.87
2018-05-04T11:47:17.440Z,2.50
2018-05-04T11:49:44.282Z,3.03
2018-05-04T11:52:11.184Z,3.30
2018-05-04T11:54:38.774Z,2.13
2018-05-04T11:57:05.633Z,2.60
2018-05-04T11:59:32.531Z,1.87
2018-05-04T12:01:59.379Z,2.03
2018-05-04T12:04:26.968Z,2.00
2018-05-04T12:06:53.892Z,2.87
2018-05-04T12:09:21.484Z,2.73
2018-05-04T12:11:48.337Z,2.40
2018-05-04T12:14:15.305Z,2.97
2018-05-04T12:16:42.275Z,2.13
2018-05-04T12:19:09.825Z,2.20
2018-05-04T12:21:37.446Z,2.13
2018-05-04T12:24:04.301Z,2.10
2018-05-04T12:26:31.143Z,2.23
2018-05-04T12:28:58.039Z,2.27
2018-05-04T12:31:24.937Z,2.00
2018-05-04T12:33:51.783Z,2.23
2018-05-04T12:36:18.672Z,2.27
2018-05-04T12:38:45.513Z,2.83
2018-05-04T12:41:12.365Z,2.20
2018-05-04T12:43:39.260Z,2.20
2018-05-04T12:46:06.104Z,2.13
2018-05-04T12:48:32.973Z,1.80
2018-05-04T12:50:59.856Z,2.60
2018-05-04T12:53:27.509Z,1.70
2018-05-04T12:55:54.301Z,2.23
2018-05-04T12:58:21.232Z,2.30
2018-05-04T13:00:48.173Z,1.80
2018-05-04T13:03:15.019Z,2.10
2018-05-04T13:05:41.913Z,1.77
2018-05-04T13:08:08.747Z,1.60
2018-05-04T13:10:35.591Z,1.70
2018-05-04T13:13:02.506Z,1.50
2018-05-04T13:15:29.463Z,1.73
2018-05-04T13:17:56.344Z,1.60
2018-05-04T13:20:23.248Z,1.63
2018-05-04T13:22:50.100Z,1.17
2018-05-04T13:25:16.939Z,1.63
2018-05-04T13:27:43.851Z,1.70
2018-05-04T13:30:11.427Z,1.90
2018-05-04T13:32:38.273Z,1.67
2018-05-04T13:35:05.248Z,1.60
2018-05-04T13:37:32.084Z,2.23
2018-05-04T13:39:58.932Z,1.90
2018-05-04T13:42:25.852Z,2.33
2018-05-04T13:44:52.697Z,1.80
2018-05-04T13:47:19.547Z,2.03
2018-05-04T13:49:46.436Z,1.60
2018-05-04T13:52:13.272Z,1.60
2018-05-04T13:54:40.103Z,2.00
2018-05-04T13:57:07.001Z,1.70
2018-05-04T13:59:33.881Z,1.87
2018-05-04T14:02:00.763Z,1.53
2018-05-04T14:04:27.649Z,1.20
2018-05-04T14:06:55.272Z,1.50
2018-05-04T14:09:22.131Z,1.40
2018-05-04T14:11:49.012Z,1.50
2018-05-04T14:14:15.857Z,1.57
2018-05-04T14:16:42.781Z,1.83
2018-05-04T14:19:10.432Z,1.70
2018-05-04T14:21:37.268Z,1.63
2018-05-04T14:24:04.111Z,2.00
2018-05-04T14:26:30.997Z,1.60
2018-05-04T14:28:57.853Z,1.73
2018-05-04T14:31:24.717Z,1.43
2018-05-04T14:33:51.963Z,1.40
2018-05-04T14:36:18.839Z,1.40
2018-05-04T14:38:45.699Z,1.80
2018-05-04T14:41:12.591Z,1.37
2018-05-04T14:43:39.428Z,1.53
2018-05-04T14:46:06.285Z,1.40
2018-05-04T14:48:33.176Z,1.90
2018-05-04T14:51:00.004Z,1.30
2018-05-04T14:53:26.861Z,1.57
2018-05-04T14:55:53.794Z,1.10
2018-05-04T14:58:20.625Z,1.20
2018-05-04T15:00:48.259Z,1.63
2018-05-04T15:03:15.145Z,1.90
2018-05-04T15:05:41.988Z,1.40
2018-05-04T15:08:08.829Z,1.70
2018-05-04T15:10:35.714Z,1.40
2018-05-04T15:13:03.288Z,2.10
2018-05-04T15:15:30.133Z,1.70
2018-05-04T15:17:57.393Z,1.43
2018-05-04T15:20:24.173Z,1.30
2018-05-04T15:22:51.022Z,1.20
2018-05-04T15:25:17.921Z,1.60
2018-05-04T15:27:44.800Z,1.47
2018-05-04T15:30:11.639Z,1.30
2018-05-04T15:32:38.545Z,1.40
2018-05-04T15:35:06.111Z,1.60
2018-05-04T15:37:32.958Z,1.50
2018-05-04T15:39:59.935Z,1.50
2018-05-04T15:42:26.713Z,1.30
2018-05-04T15:44:53.560Z,1.50
2018-05-04T15:47:20.549Z,1.70
2018-05-04T15:49:47.392Z,1.63
2018-05-04T15:52:14.227Z,1.40
2018-05-04T15:54:41.212Z,1.33
2018-05-04T15:57:08.736Z,1.60
2018-05-04T15:59:35.576Z,1.20
2018-05-04T16:02:03.039Z,1.23
2018-05-04T16:04:29.893Z,1.67
2018-05-04T16:06:56.772Z,1.60
2018-05-04T16:09:24.452Z,1.33
2018-05-04T16:11:51.296Z,1.50
2018-05-04T16:14:18.140Z,1.27
2018-05-04T16:16:45.224Z,1.50
2018-05-04T16:19:12.152Z,1.43
2018-05-04T16:21:39.732Z,1.13
2018-05-04T16:24:06.612Z,1.30
2018-05-04T16:26:33.451Z,1.60
2018-05-04T16:29:00.383Z,1.30
2018-05-04T16:31:27.196Z,2.00
2018-05-04T16:33:54.775Z,1.50
2018-05-04T16:36:21.613Z,1.60
2018-05-04T16:38:49.318Z,1.80
2018-05-04T16:41:16.851Z,1.53
2018-05-04T16:43:43.683Z,1.80
2018-05-04T16:46:17.280Z,1.50
2018-05-04T16:48:50.973Z,1.20
2018-05-04T16:51:18.607Z,1.67
2018-05-04T16:53:45.489Z,1.40
2018-05-04T16:56:13.085Z,2.17
2018-05-04T16:58:40.017Z,1.77
2018-05-04T17:01:06.925Z,2.33
2018-05-04T17:03:33.803Z,2.50
2018-05-04T17:06:00.737Z,2.00
2018-05-04T17:08:28.445Z,2.70
2018-05-04T17:10:55.985Z,2.90
2018-05-04T17:13:22.927Z,2.67
2018-05-04T17:15:49.795Z,2.87
2018-05-04T17:18:16.759Z,2.80
2018-05-04T17:20:43.795Z,3.00
2018-05-04T17:23:10.637Z,2.30
2018-05-04T17:25:37.527Z,3.10
2018-05-04T17:28:04.574Z,3.73
2018-05-04T17:30:32.171Z,2.50
2018-05-04T17:32:59.012Z,2.97
2018-05-04T17:35:25.915Z,2.40
2018-05-04T17:37:52.801Z,3.03
2018-05-04T17:40:19.763Z,3.07
2018-05-04T17:42:46.607Z,2.47
2018-05-04T17:45:13.536Z,3.00
2018-05-04T17:47:40.381Z,2.77
2018-05-04T17:50:07.272Z,3.33
2018-05-04T17:52:34.112Z,2.67
2018-05-04T17:55:01.012Z,2.40
2018-05-04T17:57:27.925Z,2.40
2018-05-04T17:59:54.778Z,3.07
2018-05-04T18:02:21.655Z,2.43
2018-05-04T18:04:48.664Z,2.37
2018-05-04T18:07:15.553Z,2.33
2018-05-04T18:09:42.535Z,2.37
2018-05-04T18:12:09.435Z,2.47
2018-05-04T18:14:36.284Z,2.00
2018-05-04T18:17:03.271Z,2.20
2018-05-04T18:19:30.164Z,2.47
2018-05-04T18:21:57.747Z,2.73
2018-05-04T18:24:24.621Z,2.17
2018-05-04T18:26:51.541Z,2.47
2018-05-04T18:29:18.385Z,2.70
2018-05-04T18:31:45.234Z,2.37
2018-05-04T18:34:12.464Z,2.00
2018-05-04T18:36:39.312Z,2.13
2018-05-04T18:39:06.185Z,2.50
2018-05-04T18:41:33.232Z,1.93
2018-05-04T18:44:00.067Z,1.77
2018-05-04T18:46:27.133Z,2.37
2018-05-04T18:48:54.758Z,2.13
2018-05-04T18:51:21.616Z,2.80
2018-05-04T18:53:48.591Z,2.40
2018-05-04T18:56:16.673Z,2.27
2018-05-04T18:58:43.556Z,1.83
2018-05-04T19:01:10.472Z,2.17
2018-05-04T19:03:37.768Z,2.30
2018-05-04T19:06:04.867Z,2.70
2018-05-04T19:08:31.739Z,2.67
2018-05-04T19:10:58.778Z,2.23
2018-05-04T19:13:25.786Z,2.40
2018-05-04T19:15:52.721Z,2.50
2018-05-04T19:18:19.628Z,3.03
2018-05-04T19:20:46.472Z,2.13
2018-05-04T19:23:13.343Z,2.90
2018-05-04T19:25:40.237Z,2.43
2018-05-04T19:28:07.377Z,2.37
2018-05-04T19:30:35.240Z,2.03
2018-05-04T19:33:02.172Z,2.07
2018-05-04T19:35:29.265Z,2.27
2018-05-04T19:37:56.123Z,2.43
2018-05-04T19:40:23.753Z,2.10
2018-05-04T19:42:50.619Z,2.20
2018-05-04T19:45:17.468Z,2.53
2018-05-04T19:47:44.345Z,3.10
2018-05-04T19:50:11.962Z,3.23
2018-05-04T19:52:38.829Z,2.10
2018-05-04T19:55:06.524Z,2.60
2018-05-04T19:57:33.366Z,2.63
2018-05-04T20:00:00.300Z,2.43
2018-05-04T20:02:27.502Z,1.90
2018-05-04T20:04:55.037Z,2.53
2018-05-04T20:07:21.989Z,2.50
2018-05-04T20:09:48.940Z,2.30
2018-05-04T20:12:16.419Z,1.93
2018-05-04T20:14:43.460Z,2.27
2018-05-04T20:17:10.363Z,2.30
2018-05-04T20:19:37.964Z,1.97
2018-05-04T20:22:04.830Z,1.67
2018-05-04T20:24:31.728Z,2.23
2018-05-04T20:26:58.572Z,2.17
2018-05-04T20:29:25.430Z,2.17
2018-05-04T20:31:52.337Z,2.47
2018-05-04T20:34:19.917Z,2.63
2018-05-04T20:36:46.748Z,1.93
2018-05-04T20:39:14.426Z,2.27
2018-05-04T20:41:41.269Z,2.07
2018-05-04T20:44:08.133Z,2.40
2018-05-04T20:46:35.035Z,1.70
2018-05-04T20:49:02.633Z,2.23
2018-05-04T20:51:29.472Z,2.00
2018-05-04T20:53:56.354Z,2.20
2018-05-04T20:56:23.204Z,2.10
2018-05-04T20:58:50.137Z,1.87
2018-05-04T21:01:17.013Z,1.97
2018-05-04T21:03:43.857Z,2.47
2018-05-04T21:06:10.702Z,1.80
2018-05-04T21:08:38.783Z,2.10
2018-05-04T21:11:06.379Z,1.60
2018-05-04T21:13:33.211Z,2.60
2018-05-04T21:16:00.122Z,1.90
2018-05-04T21:18:27.055Z,2.63
2018-05-04T21:20:53.896Z,2.13
2018-05-04T21:23:20.783Z,2.17
2018-05-04T21:25:48.370Z,1.73
2018-05-04T21:28:15.209Z,2.27
2018-05-04T21:30:42.095Z,1.53
2018-05-04T21:33:08.935Z,2.23
2018-05-04T21:35:35.796Z,2.13
2018-05-04T21:38:02.888Z,1.90
2018-05-04T21:40:29.749Z,2.53
2018-05-04T21:42:56.656Z,1.93
2018-05-04T21:45:24.276Z,2.13
2018-05-04T21:47:51.119Z,2.00
2018-05-04T21:50:17.952Z,1.90
2018-05-04T21:52:44.847Z,2.13
2018-05-04T21:55:12.454Z,2.17
2018-05-04T21:57:39.285Z,1.77
2018-05-04T22:00:06.366Z,2.17
2018-05-04T22:02:33.200Z,2.53
2018-05-04T22:05:00.043Z,2.00
2018-05-04T22:07:26.919Z,2.17
2018-05-04T22:09:53.849Z,2.27
2018-05-04T22:12:20.679Z,2.00
2018-05-04T22:14:47.655Z,2.37
2018-05-04T22:17:14.545Z,2.40
2018-05-04T22:19:41.393Z,1.97
2018-05-04T22:22:08.456Z,1.90
2018-05-04T22:24:36.032Z,1.87
2018-05-04T22:27:02.949Z,1.90
2018-05-04T22:29:29.845Z,1.77
2018-05-04T22:31:56.676Z,2.17
2018-05-04T22:34:23.524Z,2.37
2018-05-04T22:36:50.429Z,1.97
2018-05-04T22:39:17.275Z,2.20
2018-05-04T22:41:44.121Z,1.90
2018-05-04T22:44:11.159Z,2.30
2018-05-04T22:46:37.999Z,2.30
2018-05-04T22:49:04.848Z,2.70
2018-05-04T22:51:31.731Z,2.30
2018-05-04T22:53:58.580Z,2.13
2018-05-04T22:56:25.466Z,2.13
2018-05-04T22:58:53.088Z,2.40
2018-05-04T23:01:19.992Z,2.17
2018-05-04T23:03:46.820Z,2.40
2018-05-04T23:06:14.485Z,2.20
2018-05-04T23:08:41.327Z,2.53
2018-05-04T23:11:08.230Z,2.83
2018-05-04T23:13:35.222Z,2.73
2018-05-04T23:16:02.075Z,3.07
2018-05-04T23:18:28.924Z,2.80
2018-05-04T23:20:55.879Z,2.97
2018-05-04T23:23:23.423Z,2.50
2018-05-04T23:25:50.262Z,2.83
2018-05-04T23:28:17.936Z,2.93
2018-05-04T23:30:44.807Z,2.70
2018-05-04T23:33:11.741Z,2.30
2018-05-04T23:35:38.625Z,2.70
2018-05-04T23:38:05.480Z,2.93
2018-05-04T23:40:32.379Z,2.60
2018-05-04T23:42:59.260Z,2.90
2018-05-04T23:45:26.111Z,3.03
2018-05-04T23:47:57.804Z,2.70
2018-05-04T23:50:24.703Z,2.60
2018-05-04T23:52:51.562Z,3.23
2018-05-04T23:55:18.496Z,2.40
2018-05-04T23:57:45.444Z,2.30
